createdAt,value
2018-04-22T00:01:19.398Z,100190.68
2018-04-22T00:03:46.869Z,100186.46
2018-04-22T00:06:14.362Z,100183.03
2018-04-22T00:08:41.837Z,100181.86
2018-04-22T00:11:09.340Z,100179.14
2018-04-22T00:13:36.810Z,100177.13
2018-04-22T00:16:04.305Z,100179.02
2018-04-22T00:18:31.781Z,100175.87
2018-04-22T00:20:59.278Z,100165.96
2018-04-22T00:23:26.749Z,100168.58
2018-04-22T00:25:54.520Z,100165.98
2018-04-22T00:28:22.047Z,100164.24
2018-04-22T00:30:49.539Z,100168.19
2018-04-22T00:33:17.022Z,100157.67
2018-04-22T00:35:44.515Z,100155.23
2018-04-22T00:38:11.980Z,100149.52
2018-04-22T00:40:39.493Z,100151.30
2018-04-22T00:43:06.957Z,100142.58
2018-04-22T00:45:34.427Z,100143.36
2018-04-22T00:48:01.910Z,100134.64
2018-04-22T00:50:29.383Z,100136.54
2018-04-22T00:52:56.870Z,100128.52
2018-04-22T00:55:24.690Z,100124.15
2018-04-22T00:57:52.180Z,100123.36
2018-04-22T01:00:19.657Z,100114.23
2018-04-22T01:02:47.150Z,100119.81
2018-04-22T01:05:14.718Z,100118.57
2018-04-22T01:07:42.225Z,100118.16
2018-04-22T01:10:09.858Z,100114.93
2018-04-22T01:12:37.343Z,100107.84
2018-04-22T01:15:04.829Z,100104.45
2018-04-22T01:17:32.329Z,100101.34
2018-04-22T01:19:59.795Z,100101.06
2018-04-22T01:22:27.266Z,100096.27
2018-04-22T01:24:54.757Z,100099.03
2018-04-22T01:27:22.238Z,100098.78
2018-04-22T01:29:49.730Z,100094.28
2018-04-22T01:32:17.198Z,100092.53
2018-04-22T01:34:44.690Z,100087.42
2018-04-22T01:37:12.154Z,100085.13
2018-04-22T01:39:39.643Z,100080.33
2018-04-22T01:42:07.107Z,100081.84
2018-04-22T01:44:34.598Z,100080.50
2018-04-22T01:47:02.065Z,100075.88
2018-04-22T01:49:29.558Z,100079.12
2018-04-22T01:51:57.034Z,100081.98
2018-04-22T01:54:24.526Z,100073.27
2018-04-22T01:56:51.994Z,100070.83
2018-04-22T01:59:19.492Z,100073.16
2018-04-22T02:01:46.963Z,100068.44
2018-04-22T02:04:14.452Z,100065.98
2018-04-22T02:06:41.919Z,100066.65
2018-04-22T02:09:09.414Z,100071.02
2018-04-22T02:11:36.888Z,100062.70
2018-04-22T02:14:04.396Z,100062.56
2018-04-22T02:16:31.861Z,100068.84
2018-04-22T02:18:59.355Z,100065.92
2018-04-22T02:21:26.825Z,100051.89
2018-04-22T02:23:54.321Z,100049.06
2018-04-22T02:26:21.786Z,100053.31
2018-04-22T02:28:49.274Z,100042.69
2018-04-22T02:31:16.747Z,100040.52
2018-04-22T02:33:44.218Z,100041.30
2018-04-22T02:36:11.717Z,100038.13
2018-04-22T02:38:39.181Z,100040.34
2018-04-22T02:41:06.683Z,100036.25
2018-04-22T02:43:34.214Z,100041.28
2018-04-22T02:46:01.682Z,100036.52
2018-04-22T02:48:29.153Z,100035.32
2018-04-22T02:50:56.640Z,100033.80
2018-04-22T02:53:24.114Z,100032.55
2018-04-22T02:55:51.610Z,100033.91
2018-04-22T02:58:19.083Z,100033.57
2018-04-22T03:00:46.567Z,100030.85
2018-04-22T03:03:14.036Z,100033.75
2018-04-22T03:05:41.522Z,100027.09
2018-04-22T03:08:08.981Z,100023.69
2018-04-22T03:10:36.474Z,100021.40
2018-04-22T03:13:03.937Z,100023.05
2018-04-22T03:15:31.435Z,100018.29
2018-04-22T03:17:58.910Z,100020.48
2018-04-22T03:20:26.399Z,100012.27
2018-04-22T03:22:53.865Z,100011.59
2018-04-22T03:25:21.350Z,100008.62
2018-04-22T03:27:48.823Z,100014.33
2018-04-22T03:30:16.309Z,100003.86
2018-04-22T03:32:43.775Z,100000.33
2018-04-22T03:35:11.261Z,99996.09
2018-04-22T03:37:38.734Z,99990.64
2018-04-22T03:40:06.214Z,99988.49
2018-04-22T03:42:33.789Z,99982.48
2018-04-22T03:45:01.279Z,99976.24
2018-04-22T03:47:28.742Z,99972.28
2018-04-22T03:49:56.242Z,99976.37
2018-04-22T03:52:23.709Z,99972.70
2018-04-22T03:54:51.189Z,99971.46
2018-04-22T03:57:18.662Z,99965.64
2018-04-22T03:59:46.131Z,99970.27
2018-04-22T04:02:13.613Z,99962.34
2018-04-22T04:04:41.081Z,99969.72
2018-04-22T04:07:08.565Z,99968.89
2018-04-22T04:09:36.034Z,99961.01
2018-04-22T04:12:03.521Z,99961.55
2018-04-22T04:14:30.991Z,99952.84
2018-04-22T04:16:58.478Z,99956.91
2018-04-22T04:19:37.661Z,99966.84
2018-04-22T04:22:16.817Z,99957.44
2018-04-22T04:24:56.954Z,99954.57
2018-04-22T04:30:23.253Z,99955.41
2018-04-22T04:32:50.746Z,99947.23
2018-04-22T04:35:18.207Z,99942.89
2018-04-22T04:37:45.698Z,99949.70
2018-04-22T04:40:13.174Z,99953.79
2018-04-22T04:42:40.662Z,99954.19
2018-04-22T04:45:08.126Z,99945.77
2018-04-22T04:47:35.610Z,99950.64
2018-04-22T04:50:03.076Z,99954.61
2018-04-22T04:52:30.571Z,99954.05
2018-04-22T04:54:58.034Z,99959.48
2018-04-22T04:57:25.521Z,99952.83
2018-04-22T04:59:52.978Z,99951.47
2018-04-22T05:02:20.457Z,99950.69
2018-04-22T05:04:47.925Z,99959.52
2018-04-22T05:07:15.413Z,99953.38
2018-04-22T05:09:42.883Z,99957.18
2018-04-22T05:12:10.365Z,99952.39
2018-04-22T05:14:37.834Z,99956.89
2018-04-22T05:17:05.322Z,99952.64
2018-04-22T05:19:32.797Z,99956.02
2018-04-22T05:22:00.299Z,99959.08
2018-04-22T05:24:27.761Z,99958.19
2018-04-22T05:26:55.242Z,99954.08
2018-04-22T05:29:22.712Z,99953.09
2018-04-22T05:31:50.198Z,99956.61
2018-04-22T05:34:17.664Z,99948.70
2018-04-22T05:36:45.198Z,99940.97
2018-04-22T05:39:12.658Z,99933.80
2018-04-22T05:41:40.149Z,99948.14
2018-04-22T05:44:07.623Z,99941.23
2018-04-22T05:46:35.098Z,99938.95
2018-04-22T05:49:02.578Z,99936.92
2018-04-22T05:51:30.041Z,99936.09
2018-04-22T05:53:57.555Z,99938.16
2018-04-22T05:56:25.026Z,99943.09
2018-04-22T05:58:52.509Z,99944.73
2018-04-22T06:01:19.979Z,99950.67
2018-04-22T06:03:47.467Z,99940.39
2018-04-22T06:06:14.934Z,99944.22
2018-04-22T06:08:42.413Z,99938.17
2018-04-22T06:11:09.878Z,99935.16
2018-04-22T06:13:37.362Z,99938.77
2018-04-22T06:16:04.826Z,99931.06
2018-04-22T06:18:32.322Z,99919.23
2018-04-22T06:20:59.784Z,99920.52
2018-04-22T06:23:27.265Z,99913.79
2018-04-22T06:25:54.802Z,99907.92
2018-04-22T06:28:22.298Z,99914.06
2018-04-22T06:30:49.779Z,99906.52
2018-04-22T06:33:17.270Z,99902.67
2018-04-22T06:35:44.743Z,99904.98
2018-04-22T06:38:14.354Z,99898.28
2018-04-22T06:40:41.817Z,99891.48
2018-04-22T06:43:09.307Z,99881.73
2018-04-22T06:45:37.175Z,99890.03
2018-04-22T06:48:04.663Z,99882.27
2018-04-22T06:50:32.138Z,99889.40
2018-04-22T06:52:59.626Z,99889.84
2018-04-22T06:55:27.089Z,99894.56
2018-04-22T06:57:54.580Z,99899.77
2018-04-22T07:00:22.043Z,99891.48
2018-04-22T07:02:49.533Z,99895.00
2018-04-22T07:05:17.043Z,99897.34
2018-04-22T07:07:44.535Z,99897.50
2018-04-22T07:10:12.027Z,99893.96
2018-04-22T07:12:39.510Z,99892.81
2018-04-22T07:15:07.003Z,99897.36
2018-04-22T07:17:34.489Z,99899.33
2018-04-22T07:20:01.975Z,99903.69
2018-04-22T07:22:29.480Z,99904.66
2018-04-22T07:24:56.957Z,99898.06
2018-04-22T07:27:24.418Z,99900.36
2018-04-22T07:29:51.959Z,99897.84
2018-04-22T07:32:19.426Z,99906.31
2018-04-22T07:34:46.918Z,99910.39
2018-04-22T07:37:14.491Z,99909.17
2018-04-22T07:39:41.973Z,99913.31
2018-04-22T07:42:09.437Z,99915.72
2018-04-22T07:44:44.491Z,99925.30
2018-04-22T07:47:12.073Z,99929.78
2018-04-22T07:49:40.333Z,99923.77
2018-04-22T07:52:07.912Z,99928.19
2018-04-22T07:54:35.469Z,99918.84
2018-04-22T07:57:03.011Z,99919.39
2018-04-22T07:59:30.514Z,99916.60
2018-04-22T08:01:57.987Z,99913.63
2018-04-22T08:04:25.475Z,99910.17
2018-04-22T08:06:52.942Z,99910.16
2018-04-22T08:09:20.424Z,99901.72
2018-04-22T08:11:47.926Z,99906.52
2018-04-22T08:14:15.406Z,99909.76
2018-04-22T08:16:42.886Z,99903.31
2018-04-22T08:19:10.366Z,99903.95
2018-04-22T08:21:37.826Z,99902.81
2018-04-22T08:24:05.305Z,99904.99
2018-04-22T08:26:32.761Z,99897.95
2018-04-22T08:29:00.300Z,99893.14
2018-04-22T08:31:27.768Z,99900.14
2018-04-22T08:33:55.324Z,99891.17
2018-04-22T08:36:22.790Z,99890.20
2018-04-22T08:38:50.293Z,99893.98
2018-04-22T08:41:17.753Z,99886.59
2018-04-22T08:43:45.221Z,99882.17
2018-04-22T08:46:12.784Z,99884.75
2018-04-22T08:48:40.251Z,99882.02
2018-04-22T08:54:38.546Z,99872.47
2018-04-22T08:57:06.080Z,99874.34
2018-04-22T08:59:33.566Z,99874.33
2018-04-22T09:02:01.035Z,99869.25
2018-04-22T09:04:28.521Z,99880.02
2018-04-22T09:06:55.982Z,99867.43
2018-04-22T09:09:23.457Z,99861.50
2018-04-22T09:11:50.917Z,99860.70
2018-04-22T09:14:18.397Z,99858.65
2018-04-22T09:16:45.853Z,99860.31
2018-04-22T09:19:13.322Z,99863.95
2018-04-22T09:21:40.797Z,99865.41
2018-04-22T09:24:08.253Z,99866.31
2018-04-22T09:26:35.729Z,99860.96
2018-04-22T09:29:03.189Z,99858.52
2018-04-22T09:31:30.673Z,99857.73
2018-04-22T09:33:58.131Z,99854.02
2018-04-22T09:36:26.466Z,99856.72
2018-04-22T09:38:53.983Z,99852.69
2018-04-22T09:41:21.457Z,99846.98
2018-04-22T09:43:48.926Z,99844.58
2018-04-22T09:46:16.401Z,99836.88
2018-04-22T09:48:43.858Z,99844.95
2018-04-22T09:51:11.347Z,99828.77
2018-04-22T09:53:38.810Z,99829.91
2018-04-22T09:56:06.290Z,99827.06
2018-04-22T09:58:33.747Z,99822.95
2018-04-22T10:01:01.292Z,99818.55
2018-04-22T10:03:31.590Z,99819.56
2018-04-22T10:06:01.855Z,99818.60
2018-04-22T10:08:29.313Z,99818.60
2018-04-22T10:10:56.842Z,99809.31
2018-04-22T10:13:24.261Z,99811.37
2018-04-22T10:15:51.738Z,99799.89
2018-04-22T10:18:19.198Z,99790.37
2018-04-22T10:20:46.673Z,99789.06
2018-04-22T10:23:14.130Z,99789.45
2018-04-22T10:25:41.598Z,99782.77
2018-04-22T10:28:09.050Z,99772.99
2018-04-22T10:30:36.576Z,99772.34
2018-04-22T10:33:04.015Z,99769.89
2018-04-22T10:35:31.502Z,99762.59
2018-04-22T10:37:58.965Z,99755.03
2018-04-22T10:40:26.438Z,99757.75
2018-04-22T10:42:53.886Z,99751.47
2018-04-22T10:45:21.338Z,99748.52
2018-04-22T10:47:48.809Z,99749.94
2018-04-22T10:50:16.264Z,99744.08
2018-04-22T10:52:44.368Z,99742.16
2018-04-22T10:55:11.833Z,99733.36
2018-04-22T10:57:39.321Z,99730.69
2018-04-22T11:00:06.781Z,99734.11
2018-04-22T11:02:34.256Z,99719.11
2018-04-22T11:05:01.741Z,99716.23
2018-04-22T11:07:29.218Z,99712.61
2018-04-22T11:09:56.683Z,99711.84
2018-04-22T11:12:24.158Z,99711.63
2018-04-22T11:14:51.622Z,99703.64
2018-04-22T11:17:19.097Z,99699.65
2018-04-22T11:19:46.551Z,99694.16
2018-04-22T11:22:14.022Z,99686.56
2018-04-22T11:24:41.470Z,99689.56
2018-04-22T11:27:08.949Z,99685.20
2018-04-22T11:29:36.405Z,99698.89
2018-04-22T11:32:03.877Z,99687.30
2018-04-22T11:34:31.332Z,99691.44
2018-04-22T11:36:58.810Z,99685.28
2018-04-22T11:39:26.266Z,99681.95
2018-04-22T11:41:53.733Z,99683.34
2018-04-22T11:44:21.187Z,99679.26
2018-04-22T11:46:48.670Z,99678.06
2018-04-22T11:49:16.124Z,99673.39
2018-04-22T11:51:43.602Z,99667.60
2018-04-22T11:54:11.049Z,99661.67
2018-04-22T11:56:38.522Z,99661.60
2018-04-22T11:59:05.982Z,99655.45
2018-04-22T12:01:33.462Z,99657.70
2018-04-22T12:04:00.963Z,99655.80
2018-04-22T12:06:28.460Z,99660.63
2018-04-22T12:08:55.934Z,99647.58
2018-04-22T12:11:23.398Z,99653.06
2018-04-22T12:13:50.874Z,99644.45
2018-04-22T12:16:18.330Z,99638.69
2018-04-22T12:18:45.809Z,99633.41
2018-04-22T12:21:13.276Z,99634.77
2018-04-22T12:23:40.765Z,99625.56
2018-04-22T12:26:08.223Z,99615.12
2018-04-22T12:28:35.721Z,99594.75
2018-04-22T12:31:03.175Z,99591.09
2018-04-22T12:33:30.655Z,99574.69
2018-04-22T12:35:58.117Z,99569.28
2018-04-22T12:38:25.606Z,99568.42
2018-04-22T12:40:53.083Z,99583.53
2018-04-22T12:43:20.569Z,99590.34
2018-04-22T12:45:48.036Z,99574.81
2018-04-22T12:48:15.509Z,99573.75
2018-04-22T12:50:42.979Z,99589.92
2018-04-22T12:53:10.463Z,99600.45
2018-04-22T12:55:37.917Z,99619.11
2018-04-22T12:58:05.426Z,99624.91
2018-04-22T13:00:32.888Z,99649.53
2018-04-22T13:03:00.373Z,99668.41
2018-04-22T13:05:27.830Z,99663.38
2018-04-22T13:07:55.319Z,99655.91
2018-04-22T13:10:22.782Z,99636.77
2018-04-22T13:12:50.276Z,99627.81
2018-04-22T13:15:17.733Z,99617.42
2018-04-22T13:17:45.219Z,99617.20
2018-04-22T13:20:12.690Z,99611.87
2018-04-22T13:22:40.170Z,99609.36
2018-04-22T13:25:07.632Z,99602.81
2018-04-22T13:27:35.107Z,99605.03
2018-04-22T13:30:02.565Z,99601.81
2018-04-22T13:32:30.050Z,99587.11
2018-04-22T13:34:57.506Z,99598.30
2018-04-22T13:37:24.969Z,99596.84
2018-04-22T13:39:52.465Z,99590.95
2018-04-22T13:42:19.930Z,99586.20
2018-04-22T13:44:47.418Z,99579.63
2018-04-22T13:47:14.888Z,99576.86
2018-04-22T13:49:42.357Z,99571.30
2018-04-22T13:52:09.826Z,99555.34
2018-04-22T13:54:37.314Z,99562.35
2018-04-22T13:57:04.782Z,99558.39
2018-04-22T13:59:32.268Z,99555.39
2018-04-22T14:01:59.729Z,99544.23
2018-04-22T14:04:27.232Z,99544.72
2018-04-22T14:06:54.711Z,99543.26
2018-04-22T14:09:22.194Z,99547.14
2018-04-22T14:11:49.654Z,99533.70
2018-04-22T14:14:17.129Z,99531.55
2018-04-22T14:16:44.646Z,99544.27
2018-04-22T14:19:12.122Z,99544.34
2018-04-22T14:21:39.583Z,99545.07
2018-04-22T14:24:07.053Z,99536.98
2018-04-22T14:26:34.509Z,99533.67
2018-04-22T14:29:01.982Z,99539.73
2018-04-22T14:31:29.442Z,99538.16
2018-04-22T14:33:56.922Z,99541.09
2018-04-22T14:36:24.381Z,99537.64
2018-04-22T14:38:51.862Z,99537.03
2018-04-22T14:41:19.336Z,99535.84
2018-04-22T14:43:58.620Z,99525.75
2018-04-22T14:46:26.086Z,99523.92
2018-04-22T14:49:05.264Z,99529.92
2018-04-22T14:51:32.717Z,99524.56
2018-04-22T14:54:00.190Z,99536.83
2018-04-22T14:56:27.646Z,99539.08
2018-04-22T14:58:55.851Z,99539.77
2018-04-22T15:01:23.311Z,99540.98
2018-04-22T15:03:50.794Z,99536.87
2018-04-22T15:06:18.277Z,99537.19
2018-04-22T15:08:45.769Z,99542.28
2018-04-22T15:11:13.270Z,99532.52
2018-04-22T15:13:40.726Z,99537.94
2018-04-22T15:16:08.210Z,99536.90
2018-04-22T15:18:35.677Z,99532.10
2018-04-22T15:21:03.154Z,99537.48
2018-04-22T15:23:30.609Z,99531.88
2018-04-22T15:25:58.082Z,99543.56
2018-04-22T15:28:25.533Z,99539.67
2018-04-22T15:30:53.013Z,99537.69
2018-04-22T15:33:20.473Z,99529.73
2018-04-22T15:35:47.951Z,99535.03
2018-04-22T15:38:15.410Z,99532.86
2018-04-22T15:40:42.886Z,99532.17
2018-04-22T15:43:10.354Z,99530.03
2018-04-22T15:45:37.835Z,99527.50
2018-04-22T15:48:05.298Z,99516.70
2018-04-22T15:50:32.789Z,99526.91
2018-04-22T15:53:00.279Z,99513.13
2018-04-22T15:55:27.753Z,99516.16
2018-04-22T15:57:55.215Z,99518.31
2018-04-22T16:00:22.689Z,99523.91
2018-04-22T16:02:50.154Z,99512.34
2018-04-22T16:05:17.643Z,99524.88
2018-04-22T16:07:45.096Z,99522.80
2018-04-22T16:10:12.575Z,99528.22
2018-04-22T16:12:40.035Z,99532.20
2018-04-22T16:15:07.514Z,99526.33
2018-04-22T16:17:34.988Z,99527.71
2018-04-22T16:20:02.542Z,99538.30
2018-04-22T16:22:29.997Z,99535.58
2018-04-22T16:24:57.483Z,99536.34
2018-04-22T16:27:24.944Z,99543.16
2018-04-22T16:29:52.420Z,99541.23
2018-04-22T16:32:20.673Z,99547.20
2018-04-22T16:34:48.157Z,99538.91
2018-04-22T16:37:15.729Z,99533.83
2018-04-22T16:39:43.185Z,99534.23
2018-04-22T16:42:10.669Z,99539.44
2018-04-22T16:44:38.994Z,99539.83
2018-04-22T16:47:06.479Z,99534.13
2018-04-22T16:49:33.934Z,99531.98
2018-04-22T16:52:01.420Z,99536.63
2018-04-22T16:54:28.870Z,99540.34
2018-04-22T16:56:56.345Z,99533.19
2018-04-22T16:59:23.806Z,99535.94
2018-04-22T17:01:51.282Z,99534.13
2018-04-22T17:04:18.733Z,99536.95
2018-04-22T17:06:46.205Z,99542.19
2018-04-22T17:09:13.680Z,99541.06
2018-04-22T17:11:41.153Z,99538.61
2018-04-22T17:14:09.545Z,99541.16
2018-04-22T17:16:37.031Z,99540.60
2018-04-22T17:19:04.485Z,99547.54
2018-04-22T17:21:31.964Z,99542.05
2018-04-22T17:23:59.427Z,99545.24
2018-04-22T17:26:26.905Z,99557.00
2018-04-22T17:28:54.372Z,99553.78
2018-04-22T17:31:21.870Z,99563.33
2018-04-22T17:33:50.329Z,99562.69
2018-04-22T17:36:17.810Z,99573.91
2018-04-22T17:38:45.629Z,99575.87
2018-04-22T17:41:13.110Z,99569.00
2018-04-22T17:43:40.566Z,99573.03
2018-04-22T17:46:08.054Z,99574.91
2018-04-22T17:48:35.514Z,99575.11
2018-04-22T17:51:02.993Z,99581.70
2018-04-22T17:53:30.450Z,99577.70
2018-04-22T17:55:57.926Z,99579.89
2018-04-22T17:58:25.382Z,99580.50
2018-04-22T18:00:52.857Z,99581.89
2018-04-22T18:03:20.315Z,99587.55
2018-04-22T18:05:48.009Z,99585.98
2018-04-22T18:08:15.489Z,99583.17
2018-04-22T18:10:42.949Z,99588.13
2018-04-22T18:13:10.446Z,99594.83
2018-04-22T18:15:37.910Z,99587.91
2018-04-22T18:18:05.390Z,99594.98
2018-04-22T18:20:32.853Z,99594.65
2018-04-22T18:23:00.348Z,99596.33
2018-04-22T18:25:27.801Z,99600.00
2018-04-22T18:27:55.289Z,99596.25
2018-04-22T18:30:22.746Z,99604.13
2018-04-22T18:32:50.232Z,99606.83
2018-04-22T18:35:17.685Z,99601.28
2018-04-22T18:37:45.165Z,99605.18
2018-04-22T18:40:12.623Z,99607.03
2018-04-22T18:42:40.110Z,99613.27
2018-04-22T18:45:07.570Z,99609.48
2018-04-22T18:47:35.049Z,99607.57
2018-04-22T18:50:02.847Z,99609.77
2018-04-22T18:52:30.322Z,99611.87
2018-04-22T18:54:57.797Z,99615.90
2018-04-22T18:57:25.278Z,99622.64
2018-04-22T18:59:52.754Z,99616.08
2018-04-22T19:02:20.237Z,99622.91
2018-04-22T19:04:47.705Z,99615.59
2018-04-22T19:07:15.244Z,99620.50
2018-04-22T19:09:42.709Z,99619.14
2018-04-22T19:12:10.199Z,99628.06
2018-04-22T19:14:37.653Z,99629.95
2018-04-22T19:17:05.134Z,99626.95
2018-04-22T19:19:32.594Z,99636.92
2018-04-22T19:22:00.075Z,99634.64
2018-04-22T19:24:27.561Z,99638.73
2018-04-22T19:26:55.037Z,99639.55
2018-04-22T19:29:22.498Z,99640.30
2018-04-22T19:31:49.954Z,99648.26
2018-04-22T19:34:17.431Z,99649.54
2018-04-22T19:36:44.894Z,99653.10
2018-04-22T19:39:12.369Z,99651.93
2018-04-22T19:41:39.830Z,99658.41
2018-04-22T19:44:07.320Z,99665.79
2018-04-22T19:46:34.785Z,99667.88
2018-04-22T19:49:02.266Z,99667.58
2018-04-22T19:51:29.741Z,99679.80
2018-04-22T19:53:57.230Z,99680.62
2018-04-22T19:56:25.330Z,99682.41
2018-04-22T19:58:52.809Z,99686.52
2018-04-22T20:01:20.267Z,99690.11
2018-04-22T20:03:47.753Z,99685.99
2018-04-22T20:06:15.213Z,99686.79
2018-04-22T20:08:42.689Z,99697.56
2018-04-22T20:11:10.160Z,99694.00
2018-04-22T20:13:38.390Z,99696.13
2018-04-22T20:16:05.849Z,99702.25
2018-04-22T20:18:33.329Z,99704.58
2018-04-22T20:21:01.256Z,99706.28
2018-04-22T20:23:28.733Z,99711.28
2018-04-22T20:25:56.194Z,99711.91
2018-04-22T20:28:23.682Z,99716.02
2018-04-22T20:30:51.149Z,99719.30
2018-04-22T20:33:18.633Z,99719.28
2018-04-22T20:35:46.102Z,99722.56
2018-04-22T20:38:13.577Z,99725.09
2018-04-22T20:40:41.031Z,99722.08
2018-04-22T20:43:08.507Z,99719.07
2018-04-22T20:45:35.988Z,99726.33
2018-04-22T20:48:04.199Z,99726.05
2018-04-22T20:50:31.670Z,99723.94
2018-04-22T20:52:59.130Z,99724.34
2018-04-22T20:55:26.615Z,99720.77
2018-04-22T20:57:54.090Z,99723.86
2018-04-22T21:00:21.605Z,99724.77
2018-04-22T21:02:49.070Z,99729.57
2018-04-22T21:05:16.546Z,99730.22
2018-04-22T21:07:43.993Z,99723.77
2018-04-22T21:10:11.474Z,99728.31
2018-04-22T21:12:38.941Z,99730.30
2018-04-22T21:15:06.420Z,99736.50
2018-04-22T21:17:33.884Z,99733.51
2018-04-22T21:20:01.363Z,99730.89
2018-04-22T21:22:28.842Z,99733.08
2018-04-22T21:24:56.330Z,99735.91
2018-04-22T21:27:23.789Z,99734.39
2018-04-22T21:29:51.274Z,99731.58
2018-04-22T21:32:18.747Z,99729.37
2018-04-22T21:34:46.220Z,99738.40
2018-04-22T21:37:13.686Z,99738.77
2018-04-22T21:39:41.209Z,99735.31
2018-04-22T21:42:08.667Z,99733.19
2018-04-22T21:44:36.153Z,99738.27
2018-04-22T21:47:03.625Z,99729.86
2018-04-22T21:49:31.101Z,99726.08
2018-04-22T21:51:58.557Z,99727.57
2018-04-22T21:54:26.037Z,99730.41
2018-04-22T21:56:53.502Z,99730.70
2018-04-22T21:59:20.982Z,99730.45
2018-04-22T22:01:48.441Z,99731.22
2018-04-22T22:04:15.918Z,99726.45
2018-04-22T22:06:43.381Z,99725.67
2018-04-22T22:09:10.856Z,99726.02
2018-04-22T22:11:38.313Z,99727.52
2018-04-22T22:14:05.785Z,99719.62
2018-04-22T22:16:33.565Z,99721.45
2018-04-22T22:19:01.030Z,99722.67
2018-04-22T22:21:28.512Z,99720.77
2018-04-22T22:23:55.974Z,99727.77
2018-04-22T22:26:23.445Z,99721.38
2018-04-22T22:28:50.917Z,99720.70
2018-04-22T22:31:18.389Z,99719.97
2018-04-22T22:33:45.849Z,99721.14
2018-04-22T22:36:13.336Z,99712.45
2018-04-22T22:38:40.798Z,99720.27
2018-04-22T22:41:08.889Z,99719.52
2018-04-22T22:43:37.244Z,99715.98
2018-04-22T22:46:04.738Z,99712.92
2018-04-22T22:48:32.197Z,99715.08
2018-04-22T22:50:59.678Z,99714.69
2018-04-22T22:53:27.143Z,99712.79
2018-04-22T22:55:54.621Z,99711.97
2018-04-22T22:58:22.077Z,99713.03
2018-04-22T23:00:49.555Z,99712.53
2018-04-22T23:03:17.018Z,99709.59
2018-04-22T23:05:44.503Z,99713.82
2018-04-22T23:08:11.973Z,99715.80
2018-04-22T23:10:39.469Z,99706.06
2018-04-22T23:13:06.929Z,99707.92
2018-04-22T23:15:34.406Z,99716.72
2018-04-22T23:18:01.878Z,99722.16
2018-04-22T23:20:29.358Z,99709.13
2018-04-22T23:22:56.820Z,99713.44
2018-04-22T23:25:24.305Z,99716.81
2018-04-22T23:27:51.761Z,99742.30
2018-04-22T23:30:19.245Z,99745.03
2018-04-22T23:32:46.703Z,99765.45
2018-04-22T23:35:14.183Z,99765.94
2018-04-22T23:37:41.659Z,124308.59
2018-04-22T23:40:09.150Z,124308.59
2018-04-22T23:42:36.631Z,124308.59
2018-04-22T23:45:04.157Z,124308.59
2018-04-22T23:47:31.631Z,124308.59
2018-04-22T23:49:59.101Z,124308.59
2018-04-22T23:52:26.593Z,124308.59
2018-04-22T23:54:54.066Z,124308.59
2018-04-22T23:57:21.554Z,124308.59
2018-04-22T23:59:49.134Z,124308.59
